Time;durP1;ratioP1;P1;durP2;ratioP2;P2;SDS_P1;SDS_P2;PMS_P1;PMS_P2;Temp;Humidity;BMP_temperature;BMP_pressure;BME280_temperature;BME280_humidity;BME280_pressure;Samples;Min_cycle;Max_cycle;Signal;HPM_P1;HPM_P2
2020/12/30 00:00:24;;;;;;;5.90;2.97;;;;;;;4.55;75.97;97065.78;4973744;28;20158;-63
2020/12/30 00:02:51;;;;;;;4.53;3.08;;;;;;;4.60;75.71;97065.19;4975046;28;20043;-62
2020/12/30 00:05:17;;;;;;;4.25;2.90;;;;;;;4.62;75.68;97065.81;4973502;28;20105;-62
2020/12/30 00:07:45;;;;;;;5.63;3.08;;;;;;;4.46;75.95;97067.78;4974967;28;20070;-62
2020/12/30 00:10:13;;;;;;;6.88;3.15;;;;;;;4.44;76.19;97067.16;4975339;28;20101;-62
2020/12/30 00:12:41;;;;;;;4.50;2.80;;;;;;;4.47;75.88;97072.00;4976486;28;20042;-61
2020/12/30 00:15:09;;;;;;;9.10;3.58;;;;;;;4.51;76.08;97071.63;4974342;28;20054;-63
2020/12/30 00:17:39;;;;;;;4.13;2.90;;;;;;;4.54;76.07;97079.09;4975398;28;20035;-62
2020/12/30 00:20:07;;;;;;;4.65;2.80;;;;;;;4.60;75.89;97067.81;4973689;28;20066;-62
2020/12/30 00:22:34;;;;;;;4.38;2.90;;;;;;;4.67;75.77;97077.31;4974899;28;20068;-63
2020/12/30 00:25:02;;;;;;;5.97;4.50;;;;;;;4.68;75.77;97078.91;4975014;28;20051;-63
2020/12/30 00:27:28;;;;;;;4.22;2.72;;;;;;;4.68;75.79;97076.28;4975048;28;20426;-63
2020/12/30 00:29:55;;;;;;;3.38;2.70;;;;;;;4.63;75.79;97081.31;4974428;28;20043;-62
2020/12/30 00:32:22;;;;;;;3.70;2.40;;;;;;;4.55;75.99;97076.25;4974474;28;20054;-62
2020/12/30 00:34:48;;;;;;;5.35;2.60;;;;;;;4.57;76.00;97079.50;4975289;28;20139;-62
2020/12/30 00:37:15;;;;;;;3.80;2.50;;;;;;;4.55;76.01;97081.50;4976169;28;20058;-62
2020/12/30 00:39:42;;;;;;;6.78;2.58;;;;;;;4.48;76.00;97080.66;4975190;28;20046;-62
2020/12/30 00:42:09;;;;;;;3.97;2.03;;;;;;;4.42;76.10;97078.84;4975361;28;20065;-62
2020/12/30 00:44:36;;;;;;;2.38;1.88;;;;;;;4.46;76.04;97080.06;4973642;28;20117;-63
2020/12/30 00:47:03;;;;;;;2.85;1.60;;;;;;;4.46;76.01;97078.25;4978003;28;20413;-63
2020/12/30 00:49:30;;;;;;;3.17;2.13;;;;;;;4.50;76.00;97085.72;4978154;28;20047;-63
2020/12/30 00:51:58;;;;;;;2.78;1.55;;;;;;;4.54;76.08;97097.41;4979102;28;20054;-62
2020/12/30 00:54:33;;;;;;;1.90;1.80;;;;;;;4.55;75.93;97088.53;4977621;28;20047;-62
2020/12/30 00:57:01;;;;;;;4.95;2.83;;;;;;;4.54;76.22;97089.56;4977398;28;20481;-62
2020/12/30 00:59:31;;;;;;;4.13;2.45;;;;;;;4.59;76.22;97097.63;4977573;28;20129;-63
2020/12/30 01:02:00;;;;;;;4.50;1.75;;;;;;;4.59;76.29;97103.66;4977514;28;20043;-63
2020/12/30 01:04:31;;;;;;;1.70;1.60;;;;;;;4.64;76.00;97100.44;4978538;28;20070;-62
2020/12/30 01:06:58;;;;;;;2.60;2.00;;;;;;;4.67;76.07;97102.69;4980317;28;20061;-62
2020/12/30 01:09:26;;;;;;;1.98;1.55;;;;;;;4.66;76.08;97096.63;4977116;28;20058;-62
2020/12/30 01:11:53;;;;;;;2.97;2.15;;;;;;;4.67;76.07;97111.34;4976407;28;20046;-62
2020/12/30 01:14:20;;;;;;;3.60;2.00;;;;;;;4.69;75.78;97103.28;4977032;28;20050;-62
2020/12/30 01:16:51;;;;;;;3.38;2.17;;;;;;;4.67;75.92;97110.53;4976887;28;20046;-62
2020/12/30 01:19:19;;;;;;;2.70;2.35;;;;;;;4.67;76.03;97113.16;4976346;28;20142;-62
2020/12/30 01:21:46;;;;;;;4.15;1.90;;;;;;;4.71;75.91;97111.75;4974105;28;20121;-62
2020/12/30 01:24:13;;;;;;;3.60;2.35;;;;;;;4.72;75.59;97111.53;4972477;28;20078;-63
2020/12/30 01:26:41;;;;;;;2.10;1.90;;;;;;;4.75;75.77;97115.59;4973870;28;20062;-62
2020/12/30 01:29:08;;;;;;;4.03;3.00;;;;;;;4.76;75.46;97111.97;4972599;28;20050;-62
2020/12/30 01:31:36;;;;;;;2.95;2.50;;;;;;;4.72;75.31;97115.97;4973752;28;20047;-62
2020/12/30 01:34:05;;;;;;;2.45;2.13;;;;;;;4.70;75.57;97113.56;4973946;28;20047;-62
2020/12/30 01:36:32;;;;;;;4.90;2.58;;;;;;;4.70;75.58;97115.38;4972072;28;20508;-62
2020/12/30 01:38:59;;;;;;;2.50;2.30;;;;;;;4.70;75.85;97110.94;4972188;28;20046;-62
2020/12/30 01:41:26;;;;;;;3.15;2.33;;;;;;;4.70;75.59;97120.63;4971959;28;20082;-62
2020/12/30 01:43:58;;;;;;;2.92;2.63;;;;;;;4.76;75.62;97121.63;4972779;28;20417;-62
2020/12/30 01:46:33;;;;;;;3.97;2.55;;;;;;;4.82;75.70;97123.47;4973007;28;20109;-62
2020/12/30 01:49:01;;;;;;;2.60;2.25;;;;;;;4.81;75.43;97120.03;4973516;28;20053;-62
2020/12/30 01:51:30;;;;;;;2.85;2.20;;;;;;;4.85;75.61;97115.19;4971939;28;20520;-62
2020/12/30 01:53:58;;;;;;;2.50;2.10;;;;;;;4.87;75.60;97116.63;4973301;28;20057;-62
2020/12/30 01:56:28;;;;;;;2.88;2.30;;;;;;;4.89;75.57;97122.47;4972878;28;20049;-62
2020/12/30 01:58:55;;;;;;;2.15;1.83;;;;;;;4.86;75.43;97117.66;4973082;28;20688;-62
2020/12/30 02:01:26;;;;;;;2.10;1.90;;;;;;;4.87;75.62;97116.63;4973166;28;20131;-62
2020/12/30 02:03:55;;;;;;;2.10;1.80;;;;;;;4.91;75.67;97117.84;4971839;28;20061;-62
2020/12/30 02:06:22;;;;;;;2.08;1.50;;;;;;;4.93;75.36;97121.06;4972746;28;20050;-62
2020/12/30 02:08:50;;;;;;;2.20;2.00;;;;;;;4.94;75.14;97121.91;4973080;28;20039;-62
2020/12/30 02:11:18;;;;;;;4.72;2.40;;;;;;;4.83;75.16;97123.28;4971762;28;20050;-62
2020/12/30 02:13:45;;;;;;;2.88;1.60;;;;;;;4.78;75.61;97130.09;4972935;28;20047;-62
2020/12/30 02:16:11;;;;;;;1.98;1.60;;;;;;;4.75;75.14;97125.25;4972764;28;20057;-62
2020/12/30 02:18:54;;;;;;;2.85;1.92;;;;;;;4.74;75.78;97128.88;4971679;28;20501;-62
2020/12/30 02:21:21;;;;;;;1.80;1.70;;;;;;;4.77;75.72;97134.50;4971699;28;20653;-62
2020/12/30 02:23:51;;;;;;;1.80;1.65;;;;;;;4.75;75.91;97128.69;4972957;28;20050;-62
2020/12/30 02:26:18;;;;;;;2.92;1.90;;;;;;;4.74;75.97;97131.50;4972707;28;20043;-62
2020/12/30 02:28:45;;;;;;;2.33;2.00;;;;;;;4.76;75.87;97138.13;4973197;28;20148;-62
2020/12/30 02:31:12;;;;;;;2.13;1.75;;;;;;;4.72;75.68;97131.69;4972994;28;20552;-62
2020/12/30 02:33:39;;;;;;;2.28;2.08;;;;;;;4.74;76.03;97140.16;4972844;28;20560;-62
2020/12/30 02:36:06;;;;;;;2.60;2.00;;;;;;;4.82;75.99;97144.41;4972408;28;20055;-63
2020/12/30 02:38:33;;;;;;;2.38;2.17;;;;;;;4.82;75.71;97147.84;4972827;28;20039;-62
2020/12/30 02:41:00;;;;;;;2.67;1.83;;;;;;;4.77;75.92;97144.97;4972872;28;20061;-62
2020/12/30 02:43:28;;;;;;;2.75;2.10;;;;;;;4.77;76.13;97138.94;4972914;28;20097;-62
2020/12/30 02:45:55;;;;;;;2.85;1.88;;;;;;;4.80;75.88;97149.84;4972478;28;20047;-62
2020/12/30 02:48:22;;;;;;;5.65;2.00;;;;;;;4.78;76.04;97144.00;4972758;28;20493;-62
2020/12/30 02:50:49;;;;;;;2.42;2.00;;;;;;;4.81;76.09;97150.63;4972681;28;20523;-62
2020/12/30 02:53:15;;;;;;;4.38;2.25;;;;;;;4.82;76.23;97152.28;4973008;28;20066;-62
2020/12/30 02:55:42;;;;;;;3.47;1.92;;;;;;;4.81;76.14;97155.88;4975887;28;20038;-62
2020/12/30 02:58:09;;;;;;;2.15;1.70;;;;;;;4.85;75.88;97151.84;4976112;28;20452;-62
2020/12/30 03:00:36;;;;;;;1.98;1.70;;;;;;;4.93;75.94;97159.53;4976140;28;20054;-62
2020/12/30 03:03:03;;;;;;;3.15;1.77;;;;;;;4.94;75.89;97163.78;4976077;28;20488;-62
2020/12/30 03:05:30;;;;;;;1.75;1.65;;;;;;;4.87;75.83;97173.44;4975786;28;20053;-62
2020/12/30 03:07:57;;;;;;;2.70;1.90;;;;;;;4.84;75.72;97169.38;4976037;28;20043;-62
2020/12/30 03:10:23;;;;;;;2.70;1.90;;;;;;;4.81;75.85;97172.38;4976022;28;20050;-62
2020/12/30 03:12:50;;;;;;;4.57;2.10;;;;;;;4.83;76.04;97165.16;4975929;28;20043;-62
2020/12/30 03:15:16;;;;;;;3.20;1.90;;;;;;;4.78;75.86;97170.19;4974398;28;20050;-62
2020/12/30 03:17:44;;;;;;;2.53;2.20;;;;;;;4.70;76.21;97172.97;4975846;28;20053;-62
2020/12/30 03:20:11;;;;;;;5.82;2.10;;;;;;;4.74;76.37;97174.19;4975858;28;20065;-62
2020/12/30 03:22:37;;;;;;;3.10;2.20;;;;;;;4.76;76.24;97174.78;4975931;28;20047;-62
2020/12/30 03:25:04;;;;;;;3.60;2.17;;;;;;;4.78;76.25;97178.03;4975500;28;20043;-62
2020/12/30 03:27:31;;;;;;;2.58;2.20;;;;;;;4.77;76.43;97173.78;4975796;28;20042;-62
2020/12/30 03:29:57;;;;;;;2.40;2.13;;;;;;;4.75;76.21;97175.00;4975712;28;20043;-62
2020/12/30 03:32:24;;;;;;;2.28;2.08;;;;;;;4.69;76.42;97171.31;4975606;28;20058;-62
2020/12/30 03:34:52;;;;;;;2.35;2.03;;;;;;;4.65;76.60;97175.34;4975315;28;20047;-62
2020/12/30 03:37:18;;;;;;;2.97;1.90;;;;;;;4.61;76.65;97169.72;4975587;28;20061;-62
2020/12/30 03:39:45;;;;;;;4.25;2.33;;;;;;;4.57;76.86;97170.25;4975436;28;20047;-62
2020/12/30 03:42:12;;;;;;;4.57;2.00;;;;;;;4.56;76.78;97177.31;5006730;28;20119;-63
2020/12/30 03:44:38;;;;;;;3.83;1.80;;;;;;;4.60;77.00;97183.78;4974892;28;20050;-63
2020/12/30 03:47:06;;;;;;;4.53;2.15;;;;;;;4.65;76.97;97185.81;4975342;28;20054;-62
2020/12/30 03:49:33;;;;;;;3.65;1.90;;;;;;;4.62;76.89;97187.03;4975287;28;20043;-63
2020/12/30 03:52:02;;;;;;;3.65;2.03;;;;;;;4.54;77.03;97186.38;4975221;28;20126;-62
2020/12/30 03:54:28;;;;;;;3.88;1.88;;;;;;;4.53;77.09;97195.22;4974883;28;20046;-62
2020/12/30 03:56:55;;;;;;;2.22;1.70;;;;;;;4.56;76.95;97203.47;4975069;28;20046;-62
2020/12/30 03:59:22;;;;;;;2.40;1.70;;;;;;;4.53;77.18;97195.22;4974968;28;20043;-62
2020/12/30 04:01:49;;;;;;;2.40;2.13;;;;;;;4.50;77.18;97196.41;4975143;28;20126;-62
2020/12/30 04:04:16;;;;;;;4.22;2.00;;;;;;;4.48;77.10;97198.41;4974678;28;20042;-62
2020/12/30 04:06:43;;;;;;;4.82;2.53;;;;;;;4.47;77.11;97208.06;4974171;28;20050;-62
2020/12/30 04:09:10;;;;;;;3.03;1.90;;;;;;;4.44;77.14;97202.41;4974913;28;20054;-62
2020/12/30 04:11:38;;;;;;;5.05;2.33;;;;;;;4.46;77.33;97205.66;4974936;28;20444;-62
2020/12/30 04:14:04;;;;;;;3.35;2.05;;;;;;;4.45;77.24;97204.03;4973461;28;20069;-62
2020/12/30 04:16:31;;;;;;;3.40;1.80;;;;;;;4.46;77.39;97211.69;4974590;28;20054;-62
2020/12/30 04:18:58;;;;;;;4.07;2.10;;;;;;;4.43;76.92;97212.06;4974752;28;20046;-62
2020/12/30 04:21:26;;;;;;;3.25;1.80;;;;;;;4.45;77.38;97206.66;4974687;28;20422;-62
2020/12/30 04:23:53;;;;;;;4.57;2.10;;;;;;;4.53;77.30;97221.38;4973266;28;20529;-63
2020/12/30 04:26:22;;;;;;;2.25;1.90;;;;;;;4.54;77.02;97220.41;4974257;28;20050;-62
2020/12/30 04:28:49;;;;;;;3.53;2.20;;;;;;;4.53;77.26;97222.22;4974471;28;20057;-62
2020/12/30 04:31:17;;;;;;;4.18;2.13;;;;;;;4.54;77.22;97217.78;4974505;28;20097;-62
2020/12/30 04:33:44;;;;;;;3.00;2.40;;;;;;;4.54;77.13;97208.13;4974393;28;20042;-62
2020/12/30 04:36:13;;;;;;;6.18;2.45;;;;;;;4.59;77.11;97218.81;4974028;28;20062;-62
2020/12/30 04:38:41;;;;;;;4.30;2.00;;;;;;;4.58;76.94;97222.44;4974337;28;20051;-62
2020/12/30 04:41:10;;;;;;;3.42;2.28;;;;;;;4.53;76.87;97226.59;4974303;28;20054;-62
2020/12/30 04:43:41;;;;;;;3.35;2.35;;;;;;;4.50;77.09;97227.81;4974349;28;20103;-62
2020/12/30 04:46:09;;;;;;;3.40;2.22;;;;;;;4.47;77.01;97229.00;4972705;28;20071;-63
2020/12/30 04:48:38;;;;;;;5.65;2.08;;;;;;;4.50;76.87;97225.19;4974215;28;20042;-63
2020/12/30 04:51:05;;;;;;;5.13;3.28;;;;;;;4.53;76.91;97227.44;4972879;28;20050;-62
2020/12/30 04:53:34;;;;;;;4.03;2.60;;;;;;;4.55;76.71;97227.25;4973812;28;20045;-62
2020/12/30 04:56:01;;;;;;;4.53;2.60;;;;;;;4.62;76.84;97230.72;4972369;28;20061;-62
2020/12/30 04:58:29;;;;;;;3.50;2.30;;;;;;;4.65;76.53;97228.53;4973821;28;20038;-62
2020/12/30 05:00:59;;;;;;;2.92;2.58;;;;;;;4.67;76.44;97233.56;4973885;28;20057;-62
2020/12/30 05:03:28;;;;;;;6.60;2.35;;;;;;;4.66;76.32;97231.94;4973787;28;20043;-63
2020/12/30 05:06:00;;;;;;;5.10;2.90;;;;;;;4.67;76.37;97228.31;4973358;28;20054;-62
2020/12/30 05:08:27;;;;;;;4.55;2.55;;;;;;;4.71;76.63;97232.16;4973853;28;20047;-62
2020/12/30 05:10:53;;;;;;;3.83;2.30;;;;;;;4.68;76.25;97235.16;4973725;28;20039;-62
2020/12/30 05:13:20;;;;;;;6.65;2.40;;;;;;;4.69;76.19;97242.00;4973649;28;20057;-62
2020/12/30 05:15:47;;;;;;;6.00;2.53;;;;;;;4.75;76.14;97245.69;4973304;28;20113;-62
2020/12/30 05:18:15;;;;;;;3.97;2.20;;;;;;;4.71;76.11;97247.88;4973514;28;20043;-62
2020/12/30 05:20:41;;;;;;;4.97;2.15;;;;;;;4.70;76.05;97247.06;4973515;28;20043;-62
2020/12/30 05:23:09;;;;;;;4.93;2.30;;;;;;;4.67;76.15;97257.09;4972252;28;20078;-62
2020/12/30 05:25:38;;;;;;;4.40;2.65;;;;;;;4.69;76.41;97260.31;4973168;28;20755;-62
2020/12/30 05:28:05;;;;;;;5.72;2.45;;;;;;;4.66;76.29;97264.16;4973517;28;20058;-62
2020/12/30 05:30:33;;;;;;;3.80;2.60;;;;;;;4.67;76.41;97265.75;4973376;28;20105;-62
2020/12/30 05:33:01;;;;;;;3.72;2.70;;;;;;;4.70;76.21;97270.63;4973323;28;20047;-63
2020/12/30 05:35:28;;;;;;;4.22;2.22;;;;;;;4.68;76.11;97270.00;4971783;28;20046;-63
2020/12/30 05:37:56;;;;;;;9.68;3.05;;;;;;;4.59;76.00;97270.34;4973286;28;20051;-63
2020/12/30 05:40:23;;;;;;;5.40;2.80;;;;;;;4.56;76.30;97279.38;4973565;28;20444;-62
2020/12/30 05:42:51;;;;;;;5.30;3.35;;;;;;;4.52;76.41;97288.63;4973315;28;20050;-63
2020/12/30 05:45:22;;;;;;;4.68;2.40;;;;;;;4.56;76.53;97289.03;4973075;28;20444;-63
2020/12/30 05:47:50;;;;;;;3.47;2.50;;;;;;;4.54;76.52;97293.66;4973270;28;20386;-62
2020/12/30 05:50:23;;;;;;;6.15;3.38;;;;;;;4.54;76.73;97289.25;4971879;28;20505;-63
2020/12/30 05:52:51;;;;;;;6.43;2.55;;;;;;;4.50;76.59;97289.81;4973320;28;20504;-62
2020/12/30 05:55:25;;;;;;;5.28;2.35;;;;;;;4.43;76.54;97295.81;4972916;28;20053;-63
2020/12/30 05:57:53;;;;;;;5.00;2.47;;;;;;;4.45;76.67;97298.25;4973344;28;20043;-63
2020/12/30 06:00:20;;;;;;;6.03;2.60;;;;;;;4.38;76.82;97294.75;4973871;28;20153;-63
2020/12/30 06:02:48;;;;;;;3.13;2.35;;;;;;;4.42;76.72;97298.63;4973310;28;20039;-62
2020/12/30 06:05:16;;;;;;;7.50;2.75;;;;;;;4.42;76.56;97294.19;4972809;28;20051;-63
2020/12/30 06:07:44;;;;;;;5.22;2.45;;;;;;;4.48;76.43;97300.47;4973108;28;20440;-63
2020/12/30 06:10:14;;;;;;;4.97;2.70;;;;;;;4.50;76.41;97303.72;4973173;28;20047;-63
2020/12/30 06:12:51;;;;;;;7.20;3.50;;;;;;;4.57;76.72;97307.19;4972971;28;20049;-63
2020/12/30 06:15:19;;;;;;;4.43;2.55;;;;;;;4.55;76.28;97313.59;4972731;28;20449;-62
2020/12/30 06:17:54;;;;;;;3.67;2.63;;;;;;;4.59;76.28;97305.19;4972934;28;20055;-63
2020/12/30 06:20:24;;;;;;;6.18;2.67;;;;;;;4.66;76.12;97313.88;4973001;28;20046;-62
2020/12/30 06:22:58;;;;;;;7.35;3.47;;;;;;;4.71;76.22;97313.31;4971586;28;20035;-62
2020/12/30 06:25:26;;;;;;;6.00;2.58;;;;;;;4.76;76.10;97318.78;4972696;28;20070;-62
2020/12/30 06:27:54;;;;;;;5.28;3.30;;;;;;;4.80;76.01;97320.00;4972868;28;20497;-63
2020/12/30 06:30:22;;;;;;;6.05;3.08;;;;;;;4.82;75.84;97314.59;4976506;28;20051;-63
2020/12/30 06:32:49;;;;;;;7.68;3.15;;;;;;;4.79;75.83;97328.88;4975360;28;20054;-62
2020/12/30 06:35:25;;;;;;;12.02;3.30;;;;;;;4.78;75.73;97324.66;4976230;28;20504;-63
2020/12/30 06:37:51;;;;;;;6.07;2.35;;;;;;;4.77;75.80;97324.81;4976609;28;20051;-62
2020/12/30 06:40:28;;;;;;;6.75;3.35;;;;;;;4.67;75.92;97331.19;4976524;28;20050;-63
2020/12/30 06:42:56;;;;;;;6.95;2.90;;;;;;;4.66;75.97;97336.66;4976564;28;20053;-63
2020/12/30 06:45:49;;;;;;;6.95;2.45;;;;;;;4.61;76.15;97331.97;4976118;28;20047;-62
2020/12/30 06:48:18;;;;;;;6.32;2.30;;;;;;;4.62;76.21;97340.63;4976282;28;20054;-61
2020/12/30 06:50:45;;;;;;;3.72;2.10;;;;;;;4.62;76.07;97340.63;4976302;28;20512;-61
2020/12/30 06:53:23;;;;;;;9.18;3.58;;;;;;;4.65;75.81;97346.31;4976174;28;20047;-61
2020/12/30 06:55:51;;;;;;;7.78;2.42;;;;;;;4.61;75.83;97352.91;4975997;28;20115;-61
2020/12/30 06:58:47;;;;;;;11.88;2.65;;;;;;;4.59;76.09;97354.91;4974768;28;20051;-61
2020/12/30 07:01:15;;;;;;;6.18;2.78;;;;;;;4.56;75.84;97352.66;4974952;28;20154;-61
2020/12/30 07:03:43;;;;;;;5.15;3.67;;;;;;;4.58;76.03;97348.06;4976165;28;20035;-61
2020/12/30 07:06:23;;;;;;;5.28;3.10;;;;;;;4.55;76.11;97358.09;4975666;28;20496;-61
2020/12/30 07:08:50;;;;;;;7.25;2.85;;;;;;;4.57;76.16;97364.78;4976117;28;20400;-61
2020/12/30 07:11:43;;;;;;;5.05;2.55;;;;;;;4.53;76.10;97360.06;4976010;28;20396;-61
2020/12/30 07:14:11;;;;;;;9.30;2.83;;;;;;;4.44;76.16;97367.25;4975734;28;20047;-62
2020/12/30 07:16:39;;;;;;;5.95;2.80;;;;;;;4.45;76.24;97367.09;4975805;28;20043;-61
2020/12/30 07:19:10;;;;;;;7.80;2.47;;;;;;;4.43;76.16;97373.50;4975851;28;20505;-61
2020/12/30 07:21:55;;;;;;;7.22;2.67;;;;;;;4.44;76.53;97375.09;4975722;28;20050;-61
2020/12/30 07:24:23;;;;;;;11.60;3.42;;;;;;;4.36;76.43;97383.09;4975493;28;20042;-61
2020/12/30 07:26:52;;;;;;;9.13;3.03;;;;;;;4.31;76.67;97386.25;4975626;28;20047;-61
2020/12/30 07:29:19;;;;;;;3.75;2.40;;;;;;;4.32;76.60;97380.03;4975714;28;20102;-62
2020/12/30 07:31:48;;;;;;;5.60;2.88;;;;;;;4.30;76.78;97387.28;4975575;28;20416;-62
2020/12/30 07:34:17;;;;;;;6.47;2.70;;;;;;;4.25;76.53;97386.22;4975246;28;20382;-62
2020/12/30 07:36:45;;;;;;;9.32;3.10;;;;;;;4.31;76.85;97391.50;4975478;28;20408;-63
2020/12/30 07:39:13;;;;;;;6.53;2.72;;;;;;;4.34;76.70;97406.81;4975541;28;20054;-62
2020/12/30 07:41:44;;;;;;;5.82;2.60;;;;;;;4.36;76.39;97396.16;4974354;28;20042;-62
2020/12/30 07:44:12;;;;;;;5.50;3.00;;;;;;;4.32;76.76;97414.03;4975192;28;20053;-63
2020/12/30 07:46:40;;;;;;;5.00;2.65;;;;;;;4.34;76.82;97411.25;4975249;28;20043;-62
2020/12/30 07:49:09;;;;;;;6.63;3.28;;;;;;;4.41;76.73;97422.59;4975282;28;20524;-62
2020/12/30 07:51:35;;;;;;;4.30;2.58;;;;;;;4.40;76.59;97424.38;4975192;28;20455;-63
2020/12/30 07:54:03;;;;;;;4.72;2.70;;;;;;;4.48;76.69;97431.31;4975132;28;20046;-63
2020/12/30 07:56:29;;;;;;;5.82;3.20;;;;;;;4.50;76.53;97441.59;4974774;28;20327;-63
2020/12/30 07:58:56;;;;;;;6.15;3.60;;;;;;;4.52;76.51;97432.53;4974986;28;20058;-62
2020/12/30 08:01:23;;;;;;;9.35;3.63;;;;;;;4.55;76.43;97441.84;4975135;28;20055;-63
2020/12/30 08:03:50;;;;;;;9.60;3.65;;;;;;;4.60;76.26;97445.50;4974971;28;20119;-63
2020/12/30 08:06:17;;;;;;;8.18;3.20;;;;;;;4.59;76.25;97450.94;4974613;28;20043;-63
2020/12/30 08:08:45;;;;;;;5.88;3.67;;;;;;;4.61;76.42;97446.31;4973823;28;20134;-63
2020/12/30 08:11:19;;;;;;;6.32;3.72;;;;;;;4.68;76.04;97457.66;4974910;28;20078;-63
2020/12/30 08:13:46;;;;;;;9.20;3.88;;;;;;;4.62;76.29;97461.84;4974868;28;20058;-63
2020/12/30 08:16:14;;;;;;;8.57;4.05;;;;;;;4.64;76.33;97465.06;4974451;28;20046;-63
2020/12/30 08:18:51;;;;;;;9.45;3.63;;;;;;;4.60;76.27;97463.03;4974731;28;20051;-63
2020/12/30 08:21:22;;;;;;;7.10;4.07;;;;;;;4.60;76.42;97470.88;4973406;28;20519;-63
2020/12/30 08:23:49;;;;;;;9.45;4.15;;;;;;;4.61;76.51;97473.31;4974535;28;20065;-63
2020/12/30 08:26:16;;;;;;;6.93;3.50;;;;;;;4.64;76.31;97474.75;4972885;28;20276;-63
2020/12/30 08:28:43;;;;;;;8.68;4.43;;;;;;;4.67;76.43;97475.19;4974488;28;20122;-63
2020/12/30 08:31:16;;;;;;;9.30;4.30;;;;;;;4.68;76.33;97475.97;4974640;28;20410;-62
2020/12/30 08:33:48;;;;;;;9.02;3.78;;;;;;;4.67;76.19;97487.47;4974696;28;20401;-63
2020/12/30 08:36:25;;;;;;;8.73;4.65;;;;;;;4.67;76.07;97488.25;4974395;28;20058;-62
2020/12/30 08:38:55;;;;;;;10.93;4.88;;;;;;;4.61;76.28;97493.44;4974491;28;20047;-63
2020/12/30 08:41:28;;;;;;;7.88;4.40;;;;;;;4.63;76.21;97505.34;4974338;28;20085;-62
2020/12/30 08:43:59;;;;;;;11.02;4.78;;;;;;;4.70;76.14;97505.41;4973079;28;20054;-62
2020/12/30 08:46:27;;;;;;;7.28;4.05;;;;;;;4.72;76.21;97504.22;4973918;28;20047;-63
2020/12/30 08:48:54;;;;;;;12.70;4.55;;;;;;;4.80;76.12;97503.28;4972804;28;20050;-63
2020/12/30 08:51:30;;;;;;;9.43;4.93;;;;;;;4.75;75.94;97508.28;4973732;28;20047;-62
2020/12/30 08:53:56;;;;;;;9.00;4.85;;;;;;;4.77;76.10;97508.88;4974248;28;20053;-63
2020/12/30 08:56:23;;;;;;;8.70;4.03;;;;;;;4.73;75.79;97512.88;4974677;28;20050;-61
2020/12/30 08:58:54;;;;;;;6.32;4.07;;;;;;;4.77;75.88;97519.34;4974489;28;20053;-62
2020/12/30 09:01:23;;;;;;;7.22;4.15;;;;;;;4.85;75.99;97508.75;4974989;28;20482;-64
2020/12/30 09:03:50;;;;;;;12.25;4.82;;;;;;;4.93;75.61;97516.50;4973551;28;20046;-63
2020/12/30 09:06:28;;;;;;;10.80;5.60;;;;;;;4.98;75.70;97515.94;4974153;28;20054;-62
2020/12/30 09:08:55;;;;;;;12.88;4.88;;;;;;;5.04;75.61;97522.22;4974738;28;20058;-63
2020/12/30 09:11:22;;;;;;;7.35;4.03;;;;;;;5.01;75.38;97527.84;4975130;28;20504;-61
2020/12/30 09:13:49;;;;;;;7.65;4.40;;;;;;;5.09;75.48;97532.94;4974510;28;20054;-63
2020/12/30 09:16:16;;;;;;;7.07;4.55;;;;;;;5.08;75.28;97536.56;4975206;28;20054;-62
2020/12/30 09:18:49;;;;;;;11.38;4.75;;;;;;;5.11;75.23;97541.44;4973865;28;20042;-63
2020/12/30 09:21:25;;;;;;;12.40;5.75;;;;;;;5.22;75.31;97543.53;4974567;28;20523;-62
2020/12/30 09:23:52;;;;;;;9.38;4.40;;;;;;;5.28;75.09;97549.84;4974647;28;20415;-63
2020/12/30 09:26:29;;;;;;;8.55;4.05;;;;;;;5.20;74.95;97550.78;4973377;28;20051;-63
2020/12/30 09:28:57;;;;;;;9.52;4.60;;;;;;;5.13;75.03;97560.38;4973897;28;20520;-63
2020/12/30 09:31:24;;;;;;;6.50;4.20;;;;;;;5.12;74.95;97553.53;4973675;28;20053;-63
2020/12/30 09:33:50;;;;;;;9.63;4.63;;;;;;;5.08;74.91;97560.97;4973384;28;20090;-63
2020/12/30 09:36:17;;;;;;;10.02;4.95;;;;;;;5.12;75.13;97561.41;4974286;28;20054;-62
2020/12/30 09:38:44;;;;;;;10.15;4.88;;;;;;;5.16;75.13;97562.63;4973432;28;20050;-63
2020/12/30 09:41:15;;;;;;;7.50;4.40;;;;;;;5.15;74.82;97561.03;4973405;28;20458;-63
2020/12/30 09:43:46;;;;;;;8.35;4.38;;;;;;;5.17;74.92;97567.69;4974469;28;20050;-62
2020/12/30 09:46:20;;;;;;;14.13;4.88;;;;;;;5.22;74.56;97575.81;4973537;28;20047;-62
2020/12/30 09:48:47;;;;;;;6.32;4.07;;;;;;;5.26;74.48;97575.41;4974341;28;20043;-62
2020/12/30 09:51:18;;;;;;;6.97;3.58;;;;;;;5.20;74.25;97576.97;4974135;28;20416;-62
2020/12/30 09:53:45;;;;;;;7.68;4.13;;;;;;;5.17;74.29;97582.59;4973331;28;20093;-63
2020/12/30 09:56:15;;;;;;;8.90;5.95;;;;;;;5.25;74.36;97582.47;4974221;28;20688;-63
2020/12/30 09:58:43;;;;;;;12.95;8.02;;;;;;;5.28;74.16;97581.28;4973461;28;20042;-63
2020/12/30 10:01:09;;;;;;;8.80;4.70;;;;;;;5.32;74.27;97588.56;4973656;28;20047;-63
2020/12/30 10:03:36;;;;;;;8.25;4.40;;;;;;;5.38;74.10;97592.25;4975135;28;20055;-62
2020/12/30 10:06:03;;;;;;;7.97;4.78;;;;;;;5.39;73.78;97586.84;4978073;28;20051;-62
2020/12/30 10:08:29;;;;;;;7.43;3.92;;;;;;;5.41;73.48;97592.69;4978138;28;20051;-62
2020/12/30 10:10:56;;;;;;;16.13;8.48;;;;;;;5.47;73.47;97594.56;4978704;28;20081;-61
2020/12/30 10:13:24;;;;;;;8.85;4.78;;;;;;;5.51;73.39;97595.00;4977875;28;20507;-63
2020/12/30 10:15:50;;;;;;;12.43;5.85;;;;;;;5.47;72.89;97593.75;4977309;28;20047;-63
2020/12/30 10:18:17;;;;;;;13.85;6.70;;;;;;;5.58;72.88;97589.78;4977846;28;20133;-63
2020/12/30 10:20:44;;;;;;;8.90;4.22;;;;;;;5.62;72.69;97591.03;4977967;28;20034;-63
2020/12/30 10:23:10;;;;;;;7.93;3.70;;;;;;;5.68;72.52;97585.84;4978669;28;20042;-63
2020/12/30 10:25:37;;;;;;;7.70;4.22;;;;;;;5.78;72.67;97592.56;4977748;28;20042;-64
2020/12/30 10:28:04;;;;;;;6.68;3.95;;;;;;;5.89;72.24;97594.66;5008571;28;20518;-62
2020/12/30 10:30:31;;;;;;;5.40;3.75;;;;;;;5.94;71.61;97585.22;4978065;28;20531;-63
2020/12/30 10:33:12;;;;;;;7.70;4.03;;;;;;;5.95;71.84;97588.66;4977103;28;20117;-63
2020/12/30 10:35:39;;;;;;;7.50;4.25;;;;;;;6.10;71.31;97591.19;4976553;28;20054;-63
2020/12/30 10:38:06;;;;;;;9.65;6.43;;;;;;;6.09;71.43;97587.75;4976638;28;20229;-63
2020/12/30 10:40:32;;;;;;;7.85;4.65;;;;;;;6.23;71.71;97583.38;4976558;28;20039;-64
2020/12/30 10:43:00;;;;;;;8.45;5.45;;;;;;;6.12;71.06;97586.53;4976591;28;20047;-63
2020/12/30 10:45:27;;;;;;;7.53;4.35;;;;;;;6.01;71.13;97593.16;4976197;28;20050;-63
2020/12/30 10:47:54;;;;;;;8.13;5.00;;;;;;;5.96;71.52;97590.28;4976358;28;20052;-63
2020/12/30 10:50:21;;;;;;;8.00;4.13;;;;;;;6.02;71.54;97586.88;4976417;28;20058;-63
2020/12/30 10:52:48;;;;;;;9.25;6.03;;;;;;;5.94;71.35;97582.59;4976257;28;20050;-62
2020/12/30 10:55:17;;;;;;;13.93;9.98;;;;;;;5.95;71.33;97589.47;4974684;28;20507;-63
2020/12/30 10:57:45;;;;;;;5.68;5.03;;;;;;;6.05;71.38;97583.88;4976410;28;20051;-63
2020/12/30 11:00:12;;;;;;;9.52;4.78;;;;;;;5.98;71.01;97580.41;4974946;28;20070;-62
2020/12/30 11:02:39;;;;;;;6.80;5.60;;;;;;;6.12;71.33;97581.28;4976208;28;20109;-63
2020/12/30 11:05:06;;;;;;;7.13;4.55;;;;;;;6.18;70.54;97589.19;4975995;28;20065;-62
2020/12/30 11:07:33;;;;;;;7.70;4.63;;;;;;;6.09;70.71;97585.13;4976438;28;20046;-63
2020/12/30 11:10:00;;;;;;;12.45;5.85;;;;;;;6.08;70.96;97587.91;4976149;28;20129;-63
2020/12/30 11:12:26;;;;;;;11.23;6.55;;;;;;;6.09;71.07;97582.50;4976072;28;20050;-63
2020/12/30 11:14:53;;;;;;;10.88;5.30;;;;;;;6.08;71.00;97587.91;4975322;28;20062;-63
2020/12/30 11:17:20;;;;;;;8.23;5.57;;;;;;;6.02;71.06;97586.09;4976237;28;20043;-62
2020/12/30 11:19:46;;;;;;;9.85;5.30;;;;;;;6.02;70.76;97596.56;4976013;28;20170;-63
2020/12/30 11:22:14;;;;;;;10.23;5.30;;;;;;;5.99;70.70;97586.47;4976107;28;20101;-62
2020/12/30 11:24:41;;;;;;;8.98;4.63;;;;;;;5.97;70.73;97588.47;4975727;28;20038;-63
2020/12/30 11:27:07;;;;;;;7.60;4.90;;;;;;;5.88;70.80;97591.22;4976141;28;20047;-64
2020/12/30 11:29:34;;;;;;;7.22;4.53;;;;;;;5.93;71.17;97593.31;4976339;28;20053;-63
2020/12/30 11:32:01;;;;;;;7.53;4.60;;;;;;;5.92;70.94;97591.69;4974781;28;20142;-63
2020/12/30 11:34:27;;;;;;;8.57;4.97;;;;;;;5.86;71.25;97590.59;4975886;28;20054;-64
2020/12/30 11:36:54;;;;;;;6.60;4.30;;;;;;;5.89;71.28;97598.09;4976039;28;20050;-63
2020/12/30 11:39:21;;;;;;;14.13;9.40;;;;;;;5.91;71.14;97600.50;4974860;28;20057;-63
2020/12/30 11:41:49;;;;;;;9.10;5.55;;;;;;;5.93;71.18;97596.72;4975728;28;20051;-63
2020/12/30 11:44:16;;;;;;;9.27;5.50;;;;;;;5.90;71.19;97588.41;4975424;28;20051;-63
2020/12/30 11:46:43;;;;;;;8.27;5.32;;;;;;;5.93;71.25;97590.69;4975494;28;20039;-63